Terminal Aerodrome Forecast
Issued by NWS Tampa Bay Area, FL

Home | Current Version | Previous Version | Text Only | Print | Product List | Glossary On
Versions: 1 2 3 4 5 6 7 8 9 10 11 12 13 14
000
FTUS42 KTBW 301100
TAFSRQ
TAF
KSRQ 301136Z 3012/3112 08005KT P6SM FEW025 SCT250
     FM301500 14008KT P6SM SCT030 SCT250
     FM301900 20008KT P6SM VCTS SCT040CB BKN100 BKN250
     FM310200 10004KT P6SM FEW025 BKN250=

USA.gov is the U.S. government's official web portal to all federal, state and local government web resources and services.